Terminal Aerodrome Forecast
Issued by NWS

Current Version | Previous Version | Graphics & Text | Print | Product List | Glossary On
Versions: 1 2 3 4 5 6 7 8 9 10 11 12 13 14 15 16 17 18 19 20 21 22 23 24 25 26 27 28 29 30 31 32 33 34 35 36 37 38 39 40 41 42 43 44 45 46 47 48
000
FTUS41 KRNK 261552 AAA
TAFLWB
TAF AMD
KLWB 261552Z 2616/2712 VRB03KT 5SM -RASN BR SCT012 OVC025
     FM262000 30007KT 3SM -RASN BR SCT009 OVC012
     FM262200 31010G19KT 2SM -SN BR OVC009
      TEMPO 2622/2701 1SM -SN OVC005
     FM270300 31010G18KT 4SM -SN BR OVC012
     FM270800 29005KT P6SM OVC015=

USA.gov is the U.S. government's official web portal to all federal, state and local government web resources and services.